sensor_id;sensor_type;location;lat;lon;timestamp;P1;durP1;ratioP1;P2;durP2;ratioP2
179;SDS011;78;48.788;9.010;2024-01-30T00:00:40;25.70;;;6.80;;
179;SDS011;78;48.788;9.010;2024-01-30T00:03:06;25.60;;;7.70;;
179;SDS011;78;48.788;9.010;2024-01-30T00:05:32;23.27;;;6.77;;
179;SDS011;78;48.788;9.010;2024-01-30T00:07:59;23.03;;;7.20;;
179;SDS011;78;48.788;9.010;2024-01-30T00:10:25;30.67;;;8.73;;
179;SDS011;78;48.788;9.010;2024-01-30T00:12:51;24.13;;;7.17;;
179;SDS011;78;48.788;9.010;2024-01-30T00:15:17;24.53;;;7.63;;
179;SDS011;78;48.788;9.010;2024-01-30T00:17:43;24.97;;;7.40;;
179;SDS011;78;48.788;9.010;2024-01-30T00:20:10;26.47;;;8.00;;
179;SDS011;78;48.788;9.010;2024-01-30T00:22:36;26.20;;;7.83;;
179;SDS011;78;48.788;9.010;2024-01-30T00:25:03;29.60;;;10.20;;
179;SDS011;78;48.788;9.010;2024-01-30T00:27:29;29.37;;;9.43;;
179;SDS011;78;48.788;9.010;2024-01-30T00:29:55;31.97;;;10.80;;
179;SDS011;78;48.788;9.010;2024-01-30T00:32:21;27.73;;;9.00;;
179;SDS011;78;48.788;9.010;2024-01-30T00:34:48;29.87;;;8.70;;
179;SDS011;78;48.788;9.010;2024-01-30T00:37:14;25.80;;;7.80;;
179;SDS011;78;48.788;9.010;2024-01-30T00:39:41;26.33;;;8.33;;
179;SDS011;78;48.788;9.010;2024-01-30T00:42:07;23.97;;;7.80;;
179;SDS011;78;48.788;9.010;2024-01-30T00:44:36;24.17;;;7.57;;
179;SDS011;78;48.788;9.010;2024-01-30T00:47:04;23.90;;;7.40;;
179;SDS011;78;48.788;9.010;2024-01-30T00:49:31;23.77;;;7.83;;
179;SDS011;78;48.788;9.010;2024-01-30T00:51:57;23.90;;;6.90;;
179;SDS011;78;48.788;9.010;2024-01-30T00:54:23;24.50;;;7.40;;
179;SDS011;78;48.788;9.010;2024-01-30T00:56:49;24.53;;;7.10;;
179;SDS011;78;48.788;9.010;2024-01-30T00:59:15;23.60;;;7.10;;
179;SDS011;78;48.788;9.010;2024-01-30T01:01:41;24.50;;;7.73;;
179;SDS011;78;48.788;9.010;2024-01-30T01:04:07;30.60;;;10.40;;
179;SDS011;78;48.788;9.010;2024-01-30T01:06:33;34.47;;;11.27;;
179;SDS011;78;48.788;9.010;2024-01-30T01:08:59;45.47;;;15.63;;
179;SDS011;78;48.788;9.010;2024-01-30T01:11:25;30.70;;;9.73;;
179;SDS011;78;48.788;9.010;2024-01-30T01:13:51;26.63;;;7.93;;
179;SDS011;78;48.788;9.010;2024-01-30T01:16:18;24.33;;;7.00;;
179;SDS011;78;48.788;9.010;2024-01-30T01:18:44;25.80;;;6.90;;
179;SDS011;78;48.788;9.010;2024-01-30T01:21:10;24.43;;;7.40;;
179;SDS011;78;48.788;9.010;2024-01-30T01:23:35;24.73;;;7.60;;
179;SDS011;78;48.788;9.010;2024-01-30T01:26:01;24.23;;;7.30;;
179;SDS011;78;48.788;9.010;2024-01-30T01:28:28;25.40;;;7.37;;
179;SDS011;78;48.788;9.010;2024-01-30T01:30:54;24.50;;;7.70;;
179;SDS011;78;48.788;9.010;2024-01-30T01:33:24;25.80;;;8.10;;
179;SDS011;78;48.788;9.010;2024-01-30T01:35:50;26.47;;;7.93;;
179;SDS011;78;48.788;9.010;2024-01-30T01:38:16;25.17;;;8.37;;
179;SDS011;78;48.788;9.010;2024-01-30T01:40:43;26.67;;;8.20;;
179;SDS011;78;48.788;9.010;2024-01-30T01:43:09;25.97;;;7.50;;
179;SDS011;78;48.788;9.010;2024-01-30T01:45:35;23.37;;;7.80;;
179;SDS011;78;48.788;9.010;2024-01-30T01:48:01;26.10;;;8.90;;
179;SDS011;78;48.788;9.010;2024-01-30T01:50:27;30.43;;;8.73;;
179;SDS011;78;48.788;9.010;2024-01-30T01:52:54;29.50;;;8.27;;
179;SDS011;78;48.788;9.010;2024-01-30T01:55:21;23.03;;;7.40;;
179;SDS011;78;48.788;9.010;2024-01-30T01:57:49;27.30;;;8.53;;
179;SDS011;78;48.788;9.010;2024-01-30T02:00:15;26.10;;;7.90;;
179;SDS011;78;48.788;9.010;2024-01-30T02:02:42;24.10;;;7.73;;
179;SDS011;78;48.788;9.010;2024-01-30T02:05:09;22.80;;;7.50;;
179;SDS011;78;48.788;9.010;2024-01-30T02:07:35;27.57;;;8.00;;
179;SDS011;78;48.788;9.010;2024-01-30T02:10:01;26.77;;;8.20;;
179;SDS011;78;48.788;9.010;2024-01-30T02:12:28;27.97;;;8.30;;
179;SDS011;78;48.788;9.010;2024-01-30T02:14:55;28.73;;;8.83;;
179;SDS011;78;48.788;9.010;2024-01-30T02:17:21;25.83;;;8.30;;
179;SDS011;78;48.788;9.010;2024-01-30T02:19:48;25.07;;;7.70;;
179;SDS011;78;48.788;9.010;2024-01-30T02:22:15;28.27;;;8.20;;
179;SDS011;78;48.788;9.010;2024-01-30T02:24:41;30.03;;;8.37;;
179;SDS011;78;48.788;9.010;2024-01-30T02:27:07;25.07;;;8.37;;
179;SDS011;78;48.788;9.010;2024-01-30T02:29:33;27.23;;;8.30;;
179;SDS011;78;48.788;9.010;2024-01-30T02:31:59;26.60;;;8.80;;
179;SDS011;78;48.788;9.010;2024-01-30T02:34:25;27.63;;;8.20;;
179;SDS011;78;48.788;9.010;2024-01-30T02:36:51;26.70;;;8.63;;
179;SDS011;78;48.788;9.010;2024-01-30T02:39:16;24.80;;;8.07;;
179;SDS011;78;48.788;9.010;2024-01-30T02:41:42;25.63;;;7.80;;
179;SDS011;78;48.788;9.010;2024-01-30T02:44:09;27.27;;;7.60;;
179;SDS011;78;48.788;9.010;2024-01-30T02:46:35;24.80;;;8.40;;
179;SDS011;78;48.788;9.010;2024-01-30T02:49:01;24.80;;;8.07;;
179;SDS011;78;48.788;9.010;2024-01-30T02:51:27;28.23;;;8.90;;
179;SDS011;78;48.788;9.010;2024-01-30T02:53:53;25.77;;;8.00;;
179;SDS011;78;48.788;9.010;2024-01-30T02:56:18;26.10;;;8.30;;
179;SDS011;78;48.788;9.010;2024-01-30T02:58:44;25.63;;;8.70;;
179;SDS011;78;48.788;9.010;2024-01-30T03:01:10;26.23;;;8.03;;
179;SDS011;78;48.788;9.010;2024-01-30T03:03:36;27.97;;;8.73;;
179;SDS011;78;48.788;9.010;2024-01-30T03:06:03;29.07;;;9.33;;
179;SDS011;78;48.788;9.010;2024-01-30T03:08:29;27.20;;;8.80;;
179;SDS011;78;48.788;9.010;2024-01-30T03:10:56;26.57;;;8.50;;
179;SDS011;78;48.788;9.010;2024-01-30T03:13:22;26.17;;;8.57;;
179;SDS011;78;48.788;9.010;2024-01-30T03:15:50;25.73;;;7.90;;
179;SDS011;78;48.788;9.010;2024-01-30T03:18:16;24.67;;;8.27;;
179;SDS011;78;48.788;9.010;2024-01-30T03:20:43;26.67;;;8.40;;
179;SDS011;78;48.788;9.010;2024-01-30T03:23:09;25.50;;;8.23;;
179;SDS011;78;48.788;9.010;2024-01-30T03:25:36;27.60;;;8.63;;
179;SDS011;78;48.788;9.010;2024-01-30T03:28:02;26.90;;;8.23;;
179;SDS011;78;48.788;9.010;2024-01-30T03:30:29;26.30;;;8.50;;
179;SDS011;78;48.788;9.010;2024-01-30T03:32:55;25.70;;;8.87;;
179;SDS011;78;48.788;9.010;2024-01-30T03:35:21;26.50;;;8.73;;
179;SDS011;78;48.788;9.010;2024-01-30T03:37:47;29.47;;;9.50;;
179;SDS011;78;48.788;9.010;2024-01-30T03:40:13;27.47;;;8.20;;
179;SDS011;78;48.788;9.010;2024-01-30T03:42:40;32.07;;;8.50;;
179;SDS011;78;48.788;9.010;2024-01-30T03:45:07;24.70;;;8.20;;
179;SDS011;78;48.788;9.010;2024-01-30T03:47:33;30.60;;;8.60;;
179;SDS011;78;48.788;9.010;2024-01-30T03:49:59;29.80;;;8.70;;
179;SDS011;78;48.788;9.010;2024-01-30T03:52:25;27.43;;;8.87;;
179;SDS011;78;48.788;9.010;2024-01-30T03:54:51;31.37;;;8.83;;
179;SDS011;78;48.788;9.010;2024-01-30T03:57:18;26.00;;;8.73;;
179;SDS011;78;48.788;9.010;2024-01-30T03:59:44;25.03;;;7.93;;
179;SDS011;78;48.788;9.010;2024-01-30T04:02:11;23.67;;;8.27;;
179;SDS011;78;48.788;9.010;2024-01-30T04:04:37;29.90;;;8.67;;
179;SDS011;78;48.788;9.010;2024-01-30T04:07:03;29.30;;;8.27;;
179;SDS011;78;48.788;9.010;2024-01-30T04:09:29;28.90;;;8.53;;
179;SDS011;78;48.788;9.010;2024-01-30T04:11:56;30.00;;;8.73;;
179;SDS011;78;48.788;9.010;2024-01-30T04:14:22;27.77;;;9.10;;
179;SDS011;78;48.788;9.010;2024-01-30T04:16:48;24.53;;;7.60;;
179;SDS011;78;48.788;9.010;2024-01-30T04:19:15;25.83;;;8.20;;
179;SDS011;78;48.788;9.010;2024-01-30T04:21:41;27.30;;;8.80;;
179;SDS011;78;48.788;9.010;2024-01-30T04:24:08;26.23;;;8.93;;
179;SDS011;78;48.788;9.010;2024-01-30T04:26:34;26.67;;;8.50;;
179;SDS011;78;48.788;9.010;2024-01-30T04:29:01;27.43;;;8.63;;
179;SDS011;78;48.788;9.010;2024-01-30T04:31:28;26.70;;;8.60;;
179;SDS011;78;48.788;9.010;2024-01-30T04:33:54;26.73;;;8.33;;
179;SDS011;78;48.788;9.010;2024-01-30T04:36:20;27.80;;;8.90;;
179;SDS011;78;48.788;9.010;2024-01-30T04:38:46;27.57;;;8.60;;
179;SDS011;78;48.788;9.010;2024-01-30T04:41:12;26.00;;;8.60;;
179;SDS011;78;48.788;9.010;2024-01-30T04:43:38;31.70;;;9.07;;
179;SDS011;78;48.788;9.010;2024-01-30T04:46:04;31.27;;;8.50;;
179;SDS011;78;48.788;9.010;2024-01-30T04:48:30;24.90;;;8.43;;
179;SDS011;78;48.788;9.010;2024-01-30T04:50:58;29.27;;;9.33;;
179;SDS011;78;48.788;9.010;2024-01-30T04:53:24;30.40;;;11.20;;
179;SDS011;78;48.788;9.010;2024-01-30T04:55:50;32.50;;;11.57;;
179;SDS011;78;48.788;9.010;2024-01-30T04:58:17;33.90;;;11.33;;
179;SDS011;78;48.788;9.010;2024-01-30T05:00:43;32.20;;;11.30;;
179;SDS011;78;48.788;9.010;2024-01-30T05:03:11;35.30;;;10.43;;
179;SDS011;78;48.788;9.010;2024-01-30T05:05:37;32.20;;;10.47;;
179;SDS011;78;48.788;9.010;2024-01-30T05:08:03;27.87;;;9.30;;
179;SDS011;78;48.788;9.010;2024-01-30T05:10:29;28.43;;;8.77;;
179;SDS011;78;48.788;9.010;2024-01-30T05:12:56;27.23;;;9.10;;
179;SDS011;78;48.788;9.010;2024-01-30T05:15:22;29.30;;;9.93;;
179;SDS011;78;48.788;9.010;2024-01-30T05:17:49;27.60;;;9.20;;
179;SDS011;78;48.788;9.010;2024-01-30T05:20:16;26.10;;;8.70;;
179;SDS011;78;48.788;9.010;2024-01-30T05:22:42;28.87;;;9.87;;
179;SDS011;78;48.788;9.010;2024-01-30T05:25:10;27.33;;;8.50;;
179;SDS011;78;48.788;9.010;2024-01-30T05:27:37;27.73;;;8.90;;
179;SDS011;78;48.788;9.010;2024-01-30T05:30:04;28.10;;;8.97;;
179;SDS011;78;48.788;9.010;2024-01-30T05:32:31;25.47;;;7.90;;
179;SDS011;78;48.788;9.010;2024-01-30T05:34:58;24.87;;;8.03;;
179;SDS011;78;48.788;9.010;2024-01-30T05:37:24;24.67;;;8.17;;
179;SDS011;78;48.788;9.010;2024-01-30T05:39:50;24.30;;;8.27;;
179;SDS011;78;48.788;9.010;2024-01-30T05:42:16;27.63;;;9.10;;
179;SDS011;78;48.788;9.010;2024-01-30T05:44:42;25.07;;;8.13;;
179;SDS011;78;48.788;9.010;2024-01-30T05:47:08;26.60;;;8.37;;
179;SDS011;78;48.788;9.010;2024-01-30T05:49:35;28.70;;;9.37;;
179;SDS011;78;48.788;9.010;2024-01-30T05:52:02;26.13;;;8.53;;
179;SDS011;78;48.788;9.010;2024-01-30T05:54:29;26.33;;;8.43;;
179;SDS011;78;48.788;9.010;2024-01-30T05:56:55;26.87;;;8.80;;
179;SDS011;78;48.788;9.010;2024-01-30T05:59:21;25.40;;;8.20;;
179;SDS011;78;48.788;9.010;2024-01-30T06:01:47;26.63;;;8.60;;
179;SDS011;78;48.788;9.010;2024-01-30T06:04:13;26.20;;;8.73;;
179;SDS011;78;48.788;9.010;2024-01-30T06:06:40;30.13;;;9.97;;
179;SDS011;78;48.788;9.010;2024-01-30T06:09:06;27.47;;;8.60;;
179;SDS011;78;48.788;9.010;2024-01-30T06:11:37;25.47;;;7.80;;
179;SDS011;78;48.788;9.010;2024-01-30T06:14:04;28.47;;;9.27;;
179;SDS011;78;48.788;9.010;2024-01-30T06:16:30;28.27;;;8.60;;
179;SDS011;78;48.788;9.010;2024-01-30T06:18:56;26.70;;;8.80;;
179;SDS011;78;48.788;9.010;2024-01-30T06:21:23;28.63;;;9.17;;
179;SDS011;78;48.788;9.010;2024-01-30T06:23:49;33.60;;;10.43;;
179;SDS011;78;48.788;9.010;2024-01-30T06:26:15;29.53;;;9.03;;
179;SDS011;78;48.788;9.010;2024-01-30T06:28:41;29.83;;;9.80;;
179;SDS011;78;48.788;9.010;2024-01-30T06:31:07;36.23;;;10.37;;
179;SDS011;78;48.788;9.010;2024-01-30T06:33:33;26.67;;;8.60;;
179;SDS011;78;48.788;9.010;2024-01-30T06:35:59;29.20;;;9.70;;
179;SDS011;78;48.788;9.010;2024-01-30T06:38:25;25.30;;;8.07;;
179;SDS011;78;48.788;9.010;2024-01-30T06:40:51;29.20;;;8.90;;
179;SDS011;78;48.788;9.010;2024-01-30T06:43:18;26.50;;;8.97;;
179;SDS011;78;48.788;9.010;2024-01-30T06:45:44;27.57;;;8.93;;
179;SDS011;78;48.788;9.010;2024-01-30T06:48:11;28.50;;;9.10;;
179;SDS011;78;48.788;9.010;2024-01-30T06:50:37;27.60;;;8.70;;
179;SDS011;78;48.788;9.010;2024-01-30T06:53:04;24.53;;;7.27;;
179;SDS011;78;48.788;9.010;2024-01-30T06:55:30;28.00;;;8.60;;
179;SDS011;78;48.788;9.010;2024-01-30T06:57:56;30.30;;;8.20;;
179;SDS011;78;48.788;9.010;2024-01-30T07:00:22;27.70;;;8.00;;
179;SDS011;78;48.788;9.010;2024-01-30T07:02:48;25.13;;;8.30;;
179;SDS011;78;48.788;9.010;2024-01-30T07:05:14;29.50;;;9.00;;
179;SDS011;78;48.788;9.010;2024-01-30T07:07:42;28.03;;;8.60;;
179;SDS011;78;48.788;9.010;2024-01-30T07:10:08;23.30;;;8.00;;
179;SDS011;78;48.788;9.010;2024-01-30T07:12:34;24.77;;;8.50;;
179;SDS011;78;48.788;9.010;2024-01-30T07:15:00;30.20;;;9.37;;
179;SDS011;78;48.788;9.010;2024-01-30T07:17:30;28.17;;;8.93;;
179;SDS011;78;48.788;9.010;2024-01-30T07:19:56;37.93;;;11.40;;
179;SDS011;78;48.788;9.010;2024-01-30T07:22:22;35.53;;;10.80;;
179;SDS011;78;48.788;9.010;2024-01-30T07:24:48;28.77;;;8.97;;
179;SDS011;78;48.788;9.010;2024-01-30T07:27:14;33.60;;;10.80;;
179;SDS011;78;48.788;9.010;2024-01-30T07:29:42;34.10;;;11.20;;
179;SDS011;78;48.788;9.010;2024-01-30T07:32:08;35.77;;;11.67;;
179;SDS011;78;48.788;9.010;2024-01-30T07:34:34;37.20;;;12.07;;
179;SDS011;78;48.788;9.010;2024-01-30T07:37:01;41.27;;;12.80;;
179;SDS011;78;48.788;9.010;2024-01-30T07:39:27;42.00;;;13.20;;
179;SDS011;78;48.788;9.010;2024-01-30T07:41:53;41.07;;;13.50;;
179;SDS011;78;48.788;9.010;2024-01-30T07:44:20;45.30;;;13.43;;
179;SDS011;78;48.788;9.010;2024-01-30T07:46:46;39.43;;;12.70;;
179;SDS011;78;48.788;9.010;2024-01-30T07:49:12;45.00;;;13.40;;
179;SDS011;78;48.788;9.010;2024-01-30T07:51:39;46.77;;;13.47;;
179;SDS011;78;48.788;9.010;2024-01-30T07:54:05;43.07;;;14.43;;
179;SDS011;78;48.788;9.010;2024-01-30T07:56:31;44.67;;;15.40;;
179;SDS011;78;48.788;9.010;2024-01-30T07:58:57;45.77;;;15.67;;
179;SDS011;78;48.788;9.010;2024-01-30T08:01:23;74.13;;;23.33;;
179;SDS011;78;48.788;9.010;2024-01-30T08:03:49;42.80;;;15.37;;
179;SDS011;78;48.788;9.010;2024-01-30T08:06:15;54.67;;;18.27;;
179;SDS011;78;48.788;9.010;2024-01-30T08:08:41;53.17;;;18.77;;
179;SDS011;78;48.788;9.010;2024-01-30T08:11:07;84.37;;;30.53;;
179;SDS011;78;48.788;9.010;2024-01-30T08:13:32;91.30;;;33.10;;
179;SDS011;78;48.788;9.010;2024-01-30T08:15:58;82.93;;;31.23;;
179;SDS011;78;48.788;9.010;2024-01-30T08:18:24;91.63;;;33.03;;
179;SDS011;78;48.788;9.010;2024-01-30T08:20:51;74.87;;;27.90;;
179;SDS011;78;48.788;9.010;2024-01-30T08:23:17;68.50;;;26.80;;
179;SDS011;78;48.788;9.010;2024-01-30T08:25:43;78.47;;;30.70;;
179;SDS011;78;48.788;9.010;2024-01-30T08:28:09;77.20;;;28.80;;
179;SDS011;78;48.788;9.010;2024-01-30T08:30:35;70.57;;;27.27;;
179;SDS011;78;48.788;9.010;2024-01-30T08:33:01;63.90;;;24.30;;
179;SDS011;78;48.788;9.010;2024-01-30T08:35:27;64.57;;;25.10;;
179;SDS011;78;48.788;9.010;2024-01-30T08:37:56;56.27;;;22.07;;
179;SDS011;78;48.788;9.010;2024-01-30T08:40:22;51.80;;;21.00;;
179;SDS011;78;48.788;9.010;2024-01-30T08:42:48;52.13;;;20.20;;
179;SDS011;78;48.788;9.010;2024-01-30T08:45:14;51.10;;;19.83;;
179;SDS011;78;48.788;9.010;2024-01-30T08:47:40;53.80;;;20.43;;
179;SDS011;78;48.788;9.010;2024-01-30T08:50:06;58.63;;;22.50;;
179;SDS011;78;48.788;9.010;2024-01-30T08:52:32;72.50;;;22.27;;
179;SDS011;78;48.788;9.010;2024-01-30T08:54:59;51.10;;;19.63;;
179;SDS011;78;48.788;9.010;2024-01-30T08:57:25;44.03;;;18.23;;
179;SDS011;78;48.788;9.010;2024-01-30T08:59:54;104.03;;;42.60;;
179;SDS011;78;48.788;9.010;2024-01-30T09:02:20;65.27;;;27.30;;
179;SDS011;78;48.788;9.010;2024-01-30T09:04:46;68.43;;;30.27;;
179;SDS011;78;48.788;9.010;2024-01-30T09:07:12;55.90;;;23.63;;
179;SDS011;78;48.788;9.010;2024-01-30T09:09:39;43.73;;;18.53;;
179;SDS011;78;48.788;9.010;2024-01-30T09:12:08;47.33;;;18.97;;
179;SDS011;78;48.788;9.010;2024-01-30T09:14:37;42.20;;;17.40;;
179;SDS011;78;48.788;9.010;2024-01-30T09:17:03;116.17;;;47.07;;
179;SDS011;78;48.788;9.010;2024-01-30T09:19:30;55.20;;;25.17;;
179;SDS011;78;48.788;9.010;2024-01-30T09:21:56;39.20;;;16.87;;
179;SDS011;78;48.788;9.010;2024-01-30T09:24:22;41.20;;;17.53;;
179;SDS011;78;48.788;9.010;2024-01-30T09:26:48;38.27;;;15.77;;
179;SDS011;78;48.788;9.010;2024-01-30T09:29:14;36.70;;;15.30;;
179;SDS011;78;48.788;9.010;2024-01-30T09:31:42;35.80;;;14.80;;
179;SDS011;78;48.788;9.010;2024-01-30T09:34:08;38.03;;;14.63;;
179;SDS011;78;48.788;9.010;2024-01-30T09:36:34;39.30;;;15.70;;
179;SDS011;78;48.788;9.010;2024-01-30T09:39:00;35.73;;;14.53;;
179;SDS011;78;48.788;9.010;2024-01-30T09:41:26;40.93;;;14.93;;
179;SDS011;78;48.788;9.010;2024-01-30T09:43:53;38.10;;;15.47;;
179;SDS011;78;48.788;9.010;2024-01-30T09:46:20;53.30;;;17.30;;
179;SDS011;78;48.788;9.010;2024-01-30T09:48:47;48.77;;;20.53;;
179;SDS011;78;48.788;9.010;2024-01-30T09:51:14;44.63;;;19.17;;
179;SDS011;78;48.788;9.010;2024-01-30T09:53:41;46.03;;;17.57;;
179;SDS011;78;48.788;9.010;2024-01-30T09:56:09;55.77;;;17.10;;
179;SDS011;78;48.788;9.010;2024-01-30T09:58:36;43.17;;;16.00;;
179;SDS011;78;48.788;9.010;2024-01-30T10:01:02;40.50;;;16.33;;
179;SDS011;78;48.788;9.010;2024-01-30T10:03:28;42.90;;;17.40;;
179;SDS011;78;48.788;9.010;2024-01-30T10:05:54;37.67;;;16.17;;
179;SDS011;78;48.788;9.010;2024-01-30T10:08:20;42.53;;;16.83;;
179;SDS011;78;48.788;9.010;2024-01-30T10:10:47;42.10;;;17.37;;
179;SDS011;78;48.788;9.010;2024-01-30T10:13:13;41.00;;;17.00;;
179;SDS011;78;48.788;9.010;2024-01-30T10:15:38;43.17;;;18.87;;
179;SDS011;78;48.788;9.010;2024-01-30T10:18:05;40.73;;;17.73;;
179;SDS011;78;48.788;9.010;2024-01-30T10:20:31;39.97;;;17.30;;
179;SDS011;78;48.788;9.010;2024-01-30T10:22:58;49.90;;;19.40;;
179;SDS011;78;48.788;9.010;2024-01-30T10:25:25;49.10;;;19.80;;
179;SDS011;78;48.788;9.010;2024-01-30T10:27:54;48.77;;;20.13;;
179;SDS011;78;48.788;9.010;2024-01-30T10:30:20;49.13;;;17.90;;
179;SDS011;78;48.788;9.010;2024-01-30T10:32:46;41.80;;;17.37;;
179;SDS011;78;48.788;9.010;2024-01-30T10:35:12;42.27;;;17.37;;
179;SDS011;78;48.788;9.010;2024-01-30T10:37:38;39.27;;;16.23;;
179;SDS011;78;48.788;9.010;2024-01-30T10:40:04;34.97;;;13.77;;
179;SDS011;78;48.788;9.010;2024-01-30T10:42:33;31.83;;;12.40;;
179;SDS011;78;48.788;9.010;2024-01-30T10:45:06;38.77;;;12.70;;
179;SDS011;78;48.788;9.010;2024-01-30T10:47:37;30.70;;;10.97;;
179;SDS011;78;48.788;9.010;2024-01-30T10:50:05;33.47;;;11.27;;
179;SDS011;78;48.788;9.010;2024-01-30T10:52:32;30.03;;;11.40;;
179;SDS011;78;48.788;9.010;2024-01-30T10:54:58;28.90;;;10.90;;
179;SDS011;78;48.788;9.010;2024-01-30T10:57:25;28.80;;;10.73;;
179;SDS011;78;48.788;9.010;2024-01-30T11:00:01;30.10;;;11.30;;
179;SDS011;78;48.788;9.010;2024-01-30T11:02:30;28.67;;;10.73;;
179;SDS011;78;48.788;9.010;2024-01-30T11:04:57;28.47;;;9.70;;
179;SDS011;78;48.788;9.010;2024-01-30T11:07:24;29.10;;;9.50;;
179;SDS011;78;48.788;9.010;2024-01-30T11:12:16;22.70;;;6.77;;
179;SDS011;78;48.788;9.010;2024-01-30T11:14:42;24.33;;;8.10;;
179;SDS011;78;48.788;9.010;2024-01-30T11:17:09;25.60;;;7.13;;
179;SDS011;78;48.788;9.010;2024-01-30T11:19:37;24.87;;;6.97;;
179;SDS011;78;48.788;9.010;2024-01-30T11:22:03;21.60;;;7.10;;
179;SDS011;78;48.788;9.010;2024-01-30T11:24:36;22.93;;;7.57;;
179;SDS011;78;48.788;9.010;2024-01-30T11:27:07;21.37;;;6.63;;
179;SDS011;78;48.788;9.010;2024-01-30T11:29:34;21.37;;;6.63;;
179;SDS011;78;48.788;9.010;2024-01-30T11:32:00;20.53;;;5.90;;
179;SDS011;78;48.788;9.010;2024-01-30T11:34:27;26.80;;;7.13;;
179;SDS011;78;48.788;9.010;2024-01-30T11:36:56;19.30;;;5.70;;
179;SDS011;78;48.788;9.010;2024-01-30T11:39:26;21.47;;;5.83;;
179;SDS011;78;48.788;9.010;2024-01-30T11:41:53;21.37;;;6.83;;
179;SDS011;78;48.788;9.010;2024-01-30T11:44:22;23.33;;;7.00;;
179;SDS011;78;48.788;9.010;2024-01-30T11:46:48;24.83;;;6.90;;
179;SDS011;78;48.788;9.010;2024-01-30T11:49:15;25.23;;;6.40;;
179;SDS011;78;48.788;9.010;2024-01-30T11:51:42;19.40;;;5.67;;
179;SDS011;78;48.788;9.010;2024-01-30T11:54:08;20.10;;;5.37;;
179;SDS011;78;48.788;9.010;2024-01-30T11:56:34;23.43;;;7.43;;
179;SDS011;78;48.788;9.010;2024-01-30T11:59:00;25.30;;;8.03;;
179;SDS011;78;48.788;9.010;2024-01-30T12:01:26;28.07;;;9.23;;
179;SDS011;78;48.788;9.010;2024-01-30T12:03:52;24.17;;;7.30;;
179;SDS011;78;48.788;9.010;2024-01-30T12:06:18;24.17;;;6.47;;
179;SDS011;78;48.788;9.010;2024-01-30T12:09:01;22.70;;;6.40;;
179;SDS011;78;48.788;9.010;2024-01-30T12:11:29;20.70;;;6.20;;
179;SDS011;78;48.788;9.010;2024-01-30T12:13:55;25.80;;;8.57;;
179;SDS011;78;48.788;9.010;2024-01-30T12:16:21;22.50;;;7.40;;
179;SDS011;78;48.788;9.010;2024-01-30T12:18:48;23.10;;;7.40;;
179;SDS011;78;48.788;9.010;2024-01-30T12:21:16;23.93;;;6.87;;
179;SDS011;78;48.788;9.010;2024-01-30T12:23:43;24.80;;;6.40;;
179;SDS011;78;48.788;9.010;2024-01-30T12:26:09;19.70;;;5.80;;
179;SDS011;78;48.788;9.010;2024-01-30T12:28:35;20.17;;;5.50;;
179;SDS011;78;48.788;9.010;2024-01-30T12:31:04;19.47;;;5.70;;
179;SDS011;78;48.788;9.010;2024-01-30T12:33:30;18.00;;;5.37;;
179;SDS011;78;48.788;9.010;2024-01-30T12:35:57;18.30;;;5.30;;
179;SDS011;78;48.788;9.010;2024-01-30T12:38:24;18.50;;;5.20;;
179;SDS011;78;48.788;9.010;2024-01-30T12:40:53;18.73;;;5.10;;
179;SDS011;78;48.788;9.010;2024-01-30T12:43:21;20.00;;;5.40;;
179;SDS011;78;48.788;9.010;2024-01-30T12:45:47;21.30;;;5.53;;
179;SDS011;78;48.788;9.010;2024-01-30T12:48:12;19.20;;;5.27;;
179;SDS011;78;48.788;9.010;2024-01-30T12:50:39;20.53;;;4.90;;
179;SDS011;78;48.788;9.010;2024-01-30T12:53:05;18.20;;;4.80;;
179;SDS011;78;48.788;9.010;2024-01-30T12:55:31;19.03;;;5.03;;
179;SDS011;78;48.788;9.010;2024-01-30T12:57:56;20.13;;;5.00;;
179;SDS011;78;48.788;9.010;2024-01-30T13:00:22;18.80;;;4.83;;
179;SDS011;78;48.788;9.010;2024-01-30T13:02:48;18.60;;;4.63;;
179;SDS011;78;48.788;9.010;2024-01-30T13:05:17;18.30;;;5.10;;
179;SDS011;78;48.788;9.010;2024-01-30T13:07:43;19.00;;;5.23;;
179;SDS011;78;48.788;9.010;2024-01-30T13:10:09;18.63;;;5.03;;
179;SDS011;78;48.788;9.010;2024-01-30T13:12:35;18.80;;;4.93;;
179;SDS011;78;48.788;9.010;2024-01-30T13:15:03;19.23;;;5.17;;
179;SDS011;78;48.788;9.010;2024-01-30T13:17:30;20.73;;;4.97;;
179;SDS011;78;48.788;9.010;2024-01-30T13:19:56;21.20;;;4.87;;
179;SDS011;78;48.788;9.010;2024-01-30T13:22:23;25.70;;;5.20;;
179;SDS011;78;48.788;9.010;2024-01-30T13:24:49;19.37;;;5.27;;
179;SDS011;78;48.788;9.010;2024-01-30T13:27:16;21.27;;;5.10;;
179;SDS011;78;48.788;9.010;2024-01-30T13:29:42;21.47;;;5.20;;
179;SDS011;78;48.788;9.010;2024-01-30T13:32:08;17.33;;;4.80;;
179;SDS011;78;48.788;9.010;2024-01-30T13:34:34;21.10;;;6.17;;
179;SDS011;78;48.788;9.010;2024-01-30T13:37:00;19.30;;;4.80;;
179;SDS011;78;48.788;9.010;2024-01-30T13:39:25;20.67;;;5.40;;
179;SDS011;78;48.788;9.010;2024-01-30T13:41:51;19.10;;;5.00;;
179;SDS011;78;48.788;9.010;2024-01-30T13:44:17;17.67;;;4.63;;
179;SDS011;78;48.788;9.010;2024-01-30T13:46:44;17.80;;;4.80;;
179;SDS011;78;48.788;9.010;2024-01-30T13:49:11;19.00;;;4.30;;
179;SDS011;78;48.788;9.010;2024-01-30T13:51:37;20.33;;;5.10;;
179;SDS011;78;48.788;9.010;2024-01-30T13:54:03;26.13;;;5.10;;
179;SDS011;78;48.788;9.010;2024-01-30T13:56:29;18.60;;;5.03;;
179;SDS011;78;48.788;9.010;2024-01-30T13:58:55;20.37;;;4.97;;
179;SDS011;78;48.788;9.010;2024-01-30T14:01:21;20.00;;;4.63;;
179;SDS011;78;48.788;9.010;2024-01-30T14:03:48;19.00;;;4.80;;
179;SDS011;78;48.788;9.010;2024-01-30T14:06:14;19.87;;;4.80;;
179;SDS011;78;48.788;9.010;2024-01-30T14:08:40;20.57;;;4.90;;
179;SDS011;78;48.788;9.010;2024-01-30T14:11:06;19.37;;;5.37;;
179;SDS011;78;48.788;9.010;2024-01-30T14:13:31;17.97;;;4.77;;
179;SDS011;78;48.788;9.010;2024-01-30T14:15:57;18.90;;;4.57;;
179;SDS011;78;48.788;9.010;2024-01-30T14:18:24;16.30;;;4.20;;
179;SDS011;78;48.788;9.010;2024-01-30T14:20:50;17.70;;;4.57;;
179;SDS011;78;48.788;9.010;2024-01-30T14:23:17;18.03;;;4.47;;
179;SDS011;78;48.788;9.010;2024-01-30T14:25:43;19.27;;;4.90;;
179;SDS011;78;48.788;9.010;2024-01-30T14:28:09;18.87;;;5.23;;
179;SDS011;78;48.788;9.010;2024-01-30T14:30:35;22.60;;;4.93;;
179;SDS011;78;48.788;9.010;2024-01-30T14:33:01;38.63;;;14.03;;
179;SDS011;78;48.788;9.010;2024-01-30T14:35:27;23.80;;;7.50;;
179;SDS011;78;48.788;9.010;2024-01-30T14:37:53;26.20;;;7.43;;
179;SDS011;78;48.788;9.010;2024-01-30T14:40:19;26.60;;;7.77;;
179;SDS011;78;48.788;9.010;2024-01-30T14:42:45;26.43;;;8.27;;
179;SDS011;78;48.788;9.010;2024-01-30T14:45:12;24.00;;;8.20;;
179;SDS011;78;48.788;9.010;2024-01-30T14:47:38;27.10;;;9.27;;
179;SDS011;78;48.788;9.010;2024-01-30T14:50:04;28.80;;;9.60;;
179;SDS011;78;48.788;9.010;2024-01-30T14:52:30;25.50;;;9.20;;
179;SDS011;78;48.788;9.010;2024-01-30T14:54:56;26.83;;;9.90;;
179;SDS011;78;48.788;9.010;2024-01-30T14:57:23;28.60;;;9.80;;
179;SDS011;78;48.788;9.010;2024-01-30T14:59:51;30.10;;;9.77;;
179;SDS011;78;48.788;9.010;2024-01-30T15:02:17;37.20;;;11.33;;
179;SDS011;78;48.788;9.010;2024-01-30T15:04:43;32.57;;;10.90;;
179;SDS011;78;48.788;9.010;2024-01-30T15:07:09;40.10;;;10.73;;
179;SDS011;78;48.788;9.010;2024-01-30T15:09:34;29.33;;;11.00;;
179;SDS011;78;48.788;9.010;2024-01-30T15:12:00;27.63;;;9.83;;
179;SDS011;78;48.788;9.010;2024-01-30T15:14:26;32.03;;;10.57;;
179;SDS011;78;48.788;9.010;2024-01-30T15:16:52;25.80;;;9.90;;
179;SDS011;78;48.788;9.010;2024-01-30T15:19:18;28.40;;;10.70;;
179;SDS011;78;48.788;9.010;2024-01-30T15:21:44;28.27;;;10.50;;
179;SDS011;78;48.788;9.010;2024-01-30T15:24:10;32.40;;;9.70;;
179;SDS011;78;48.788;9.010;2024-01-30T15:26:40;37.23;;;10.10;;
179;SDS011;78;48.788;9.010;2024-01-30T15:29:06;33.03;;;10.17;;
179;SDS011;78;48.788;9.010;2024-01-30T15:31:32;26.40;;;10.17;;
179;SDS011;78;48.788;9.010;2024-01-30T15:33:57;32.33;;;10.17;;
179;SDS011;78;48.788;9.010;2024-01-30T15:36:23;27.20;;;10.13;;